createdAt,value
2022-12-27T00:01:25.516Z,55.22
2022-12-27T00:03:52.224Z,56.13
2022-12-27T00:06:19.106Z,56.83
2022-12-27T00:08:45.778Z,56.53
2022-12-27T00:11:12.598Z,56.18
2022-12-27T00:13:39.282Z,55.64
2022-12-27T00:16:05.983Z,55.80
2022-12-27T00:18:32.650Z,55.84
2022-12-27T00:20:59.301Z,55.63
2022-12-27T00:23:25.998Z,56.48
2022-12-27T00:25:52.647Z,56.40
2022-12-27T00:28:19.314Z,57.28
2022-12-27T00:30:45.955Z,58.70
2022-12-27T00:33:12.608Z,58.22
2022-12-27T00:35:39.282Z,57.32
2022-12-27T00:38:05.950Z,57.49
2022-12-27T00:40:32.651Z,57.34
2022-12-27T00:42:59.383Z,57.52
2022-12-27T00:45:26.064Z,57.06
2022-12-27T00:47:52.801Z,56.36
2022-12-27T00:50:19.514Z,56.53
2022-12-27T00:52:46.183Z,56.20
2022-12-27T00:55:12.909Z,56.71
2022-12-27T00:57:40.052Z,57.70
2022-12-27T01:00:10.363Z,57.52
2022-12-27T01:02:37.393Z,58.73
2022-12-27T01:05:04.285Z,58.74
2022-12-27T01:07:30.993Z,58.38
2022-12-27T01:09:57.680Z,58.02
2022-12-27T01:12:24.597Z,57.59
2022-12-27T01:14:51.426Z,58.36
2022-12-27T01:17:18.089Z,58.60
2022-12-27T01:19:44.729Z,58.80
2022-12-27T01:22:11.570Z,58.33
2022-12-27T01:24:38.266Z,58.77
2022-12-27T01:27:04.959Z,58.38
2022-12-27T01:29:31.725Z,58.64
2022-12-27T01:31:58.404Z,59.01
2022-12-27T01:34:25.355Z,59.30
2022-12-27T01:36:52.067Z,59.29
2022-12-27T01:39:18.736Z,59.27
2022-12-27T01:41:45.395Z,59.31
2022-12-27T01:44:12.119Z,60.12
2022-12-27T01:46:38.818Z,59.99
2022-12-27T01:49:05.470Z,61.08
2022-12-27T01:51:32.156Z,60.41
2022-12-27T01:53:58.824Z,59.46
2022-12-27T01:56:25.519Z,59.96
2022-12-27T01:58:52.182Z,60.61
2022-12-27T02:01:18.863Z,60.49
2022-12-27T02:03:45.643Z,59.97
2022-12-27T02:06:12.297Z,60.04
2022-12-27T02:08:38.964Z,61.01
2022-12-27T02:11:05.726Z,60.62
2022-12-27T02:13:32.400Z,60.56
2022-12-27T02:15:59.130Z,60.91
2022-12-27T02:18:25.815Z,60.96
2022-12-27T02:20:52.448Z,61.10
2022-12-27T02:23:19.154Z,61.26
2022-12-27T02:25:45.899Z,61.25
2022-12-27T02:28:12.634Z,62.52
2022-12-27T02:30:39.339Z,62.43
2022-12-27T02:33:06.037Z,62.36
2022-12-27T02:35:32.717Z,63.49
2022-12-27T02:37:59.423Z,63.17
2022-12-27T02:40:26.066Z,63.74
2022-12-27T02:42:52.978Z,64.06
2022-12-27T02:45:19.643Z,63.32
2022-12-27T02:47:46.369Z,62.90
2022-12-27T02:50:13.025Z,61.70
2022-12-27T02:52:39.854Z,62.24
2022-12-27T02:55:06.572Z,62.46
2022-12-27T02:57:33.257Z,61.98
2022-12-27T02:59:59.891Z,61.57
2022-12-27T03:02:26.687Z,63.07
2022-12-27T03:04:53.470Z,62.93
2022-12-27T03:07:20.323Z,63.36
2022-12-27T03:09:46.948Z,64.22
2022-12-27T03:12:13.687Z,63.44
2022-12-27T03:14:40.388Z,63.53
2022-12-27T03:17:07.259Z,64.21
2022-12-27T03:19:33.966Z,64.36
2022-12-27T03:22:00.579Z,64.93
2022-12-27T03:24:27.216Z,64.26
2022-12-27T03:26:53.908Z,64.01
2022-12-27T03:29:20.610Z,65.45
2022-12-27T03:31:47.289Z,65.11
2022-12-27T03:34:13.930Z,64.46
2022-12-27T03:36:40.566Z,64.07
2022-12-27T03:39:07.269Z,63.39
2022-12-27T03:41:33.944Z,63.62
2022-12-27T03:44:00.577Z,62.78
2022-12-27T03:46:27.268Z,63.76
2022-12-27T03:48:53.985Z,64.45
2022-12-27T03:51:20.882Z,64.32
2022-12-27T03:53:47.828Z,64.98
2022-12-27T03:56:14.515Z,65.46
2022-12-27T03:58:41.148Z,65.05
2022-12-27T04:01:07.969Z,64.48
2022-12-27T04:03:34.708Z,63.58
2022-12-27T04:06:01.439Z,63.86
2022-12-27T04:08:28.137Z,64.80
2022-12-27T04:10:54.764Z,64.53
2022-12-27T04:13:21.436Z,64.76
2022-12-27T04:15:48.172Z,64.53
2022-12-27T04:18:14.835Z,63.69
2022-12-27T04:20:41.482Z,63.82
2022-12-27T04:23:08.205Z,62.67
2022-12-27T04:25:34.918Z,63.46
2022-12-27T04:28:01.610Z,63.03
2022-12-27T04:30:28.267Z,63.65
2022-12-27T04:32:54.924Z,63.62
2022-12-27T04:35:21.535Z,64.70
2022-12-27T04:37:48.231Z,64.46
2022-12-27T04:40:14.904Z,64.07
2022-12-27T04:42:41.542Z,64.48
2022-12-27T04:45:14.862Z,65.13
2022-12-27T04:50:26.229Z,64.87
2022-12-27T04:52:52.891Z,64.50
2022-12-27T04:55:19.642Z,64.68
2022-12-27T04:57:46.310Z,64.10
2022-12-27T05:00:12.957Z,64.28
2022-12-27T05:02:39.773Z,64.92
2022-12-27T05:05:06.571Z,64.20
2022-12-27T05:07:33.255Z,65.47
2022-12-27T05:09:59.925Z,65.17
2022-12-27T05:12:26.546Z,64.42
2022-12-27T05:14:53.252Z,64.15
2022-12-27T05:17:19.887Z,64.43
2022-12-27T05:19:46.681Z,64.18
2022-12-27T05:22:13.326Z,64.37
2022-12-27T05:24:40.029Z,64.04
2022-12-27T05:27:06.730Z,64.15
2022-12-27T05:29:33.470Z,64.32
2022-12-27T05:32:00.146Z,64.60
2022-12-27T05:34:26.836Z,64.23
2022-12-27T05:36:53.555Z,63.51
2022-12-27T05:39:20.190Z,65.23
2022-12-27T05:41:46.904Z,64.81
2022-12-27T05:44:13.626Z,64.25
2022-12-27T05:46:40.354Z,65.36
2022-12-27T05:49:07.061Z,64.87
2022-12-27T05:51:33.713Z,66.01
2022-12-27T05:54:00.373Z,65.41
2022-12-27T05:56:27.001Z,66.52
2022-12-27T05:58:53.647Z,65.14
2022-12-27T06:01:20.444Z,67.20
2022-12-27T06:03:47.136Z,66.01
2022-12-27T06:06:13.810Z,66.79
2022-12-27T06:08:40.506Z,67.25
2022-12-27T06:11:07.151Z,67.49
2022-12-27T06:13:33.830Z,66.16
2022-12-27T06:16:00.564Z,65.79
2022-12-27T06:18:27.338Z,65.68
2022-12-27T06:20:54.023Z,65.51
2022-12-27T06:23:20.665Z,66.01
2022-12-27T06:25:47.383Z,65.40
2022-12-27T06:28:14.037Z,64.31
2022-12-27T06:30:40.787Z,64.82
2022-12-27T06:33:07.429Z,65.31
2022-12-27T06:35:34.193Z,65.30
2022-12-27T06:38:00.858Z,65.41
2022-12-27T06:40:27.529Z,64.97
2022-12-27T06:42:54.209Z,64.36
2022-12-27T06:45:20.847Z,64.91
2022-12-27T06:47:47.522Z,64.04
2022-12-27T06:50:14.212Z,64.46
2022-12-27T06:52:40.926Z,64.53
2022-12-27T06:55:07.582Z,63.89
2022-12-27T06:57:34.273Z,63.60
2022-12-27T07:00:00.947Z,63.45
2022-12-27T07:02:27.750Z,64.73
2022-12-27T07:04:54.470Z,64.28
2022-12-27T07:07:21.207Z,64.51
2022-12-27T07:09:47.873Z,63.92
2022-12-27T07:12:14.596Z,64.87
2022-12-27T07:14:41.277Z,63.77
2022-12-27T07:17:07.969Z,63.57
2022-12-27T07:19:34.643Z,63.27
2022-12-27T07:22:01.304Z,63.15
2022-12-27T07:24:28.041Z,62.95
2022-12-27T07:26:54.727Z,63.45
2022-12-27T07:29:21.382Z,64.59
2022-12-27T07:31:48.215Z,64.21
2022-12-27T07:34:14.969Z,63.62
2022-12-27T07:36:41.637Z,65.48
2022-12-27T07:39:08.326Z,64.85
2022-12-27T07:41:35.021Z,64.73
2022-12-27T07:44:01.705Z,63.57
2022-12-27T07:46:28.437Z,62.45
2022-12-27T07:48:55.085Z,61.35
2022-12-27T07:51:21.799Z,59.93
2022-12-27T07:53:48.459Z,58.91
2022-12-27T07:56:18.882Z,58.67
2022-12-27T07:58:48.480Z,57.82
2022-12-27T08:01:15.250Z,57.89
2022-12-27T08:03:42.104Z,57.94
2022-12-27T08:06:08.953Z,57.27
2022-12-27T08:08:35.598Z,55.91
2022-12-27T08:11:05.760Z,56.72
2022-12-27T08:13:32.671Z,56.12
2022-12-27T08:15:59.379Z,55.94
2022-12-27T08:18:26.042Z,55.73
2022-12-27T08:20:52.681Z,55.45
2022-12-27T08:23:19.341Z,55.83
2022-12-27T08:25:48.716Z,56.28
2022-12-27T08:28:15.865Z,56.36
2022-12-27T08:30:42.586Z,56.12
2022-12-27T08:33:09.246Z,55.05
2022-12-27T08:35:52.808Z,55.22
2022-12-27T08:38:20.667Z,54.28
2022-12-27T08:40:47.351Z,54.12
2022-12-27T08:43:14.033Z,53.34
2022-12-27T08:45:40.684Z,53.63
2022-12-27T08:48:07.461Z,53.45
2022-12-27T08:50:34.261Z,52.37
2022-12-27T08:53:00.921Z,52.12
2022-12-27T08:55:27.626Z,51.24
2022-12-27T08:57:54.412Z,51.39
2022-12-27T09:00:21.065Z,49.98
2022-12-27T09:02:47.804Z,50.50
2022-12-27T09:05:14.571Z,50.81
2022-12-27T09:07:41.256Z,48.71
2022-12-27T09:10:07.933Z,50.31
2022-12-27T09:12:34.617Z,48.93
2022-12-27T09:15:01.366Z,48.97
2022-12-27T09:17:28.028Z,48.01
2022-12-27T09:19:54.707Z,47.45
2022-12-27T09:22:21.410Z,46.55
2022-12-27T09:24:48.109Z,46.96
2022-12-27T09:27:14.780Z,45.36
2022-12-27T09:29:46.397Z,46.17
2022-12-27T09:32:14.895Z,46.13
2022-12-27T09:34:41.624Z,46.69
2022-12-27T09:37:08.310Z,46.31
2022-12-27T09:39:34.985Z,45.52
2022-12-27T09:44:48.319Z,45.50
2022-12-27T09:47:15.028Z,44.01
2022-12-27T09:49:41.707Z,44.25
2022-12-27T09:52:08.413Z,43.45
2022-12-27T09:54:35.094Z,42.20
2022-12-27T09:57:19.390Z,42.95
2022-12-27T09:59:46.763Z,42.18
2022-12-27T10:02:13.482Z,42.61
2022-12-27T10:05:17.903Z,42.36
2022-12-27T10:07:26.896Z,41.91
2022-12-27T10:10:15.006Z,40.07
2022-12-27T10:12:41.683Z,41.03
2022-12-27T10:15:08.321Z,40.14
2022-12-27T10:17:34.969Z,39.62
2022-12-27T10:20:01.641Z,39.27
2022-12-27T10:22:28.271Z,39.72
2022-12-27T10:24:56.477Z,38.68
2022-12-27T10:27:23.312Z,38.42
2022-12-27T10:29:50.004Z,37.96
2022-12-27T10:32:16.630Z,38.70
2022-12-27T10:34:43.278Z,37.17
2022-12-27T10:37:09.951Z,37.79
2022-12-27T10:39:36.622Z,36.18
2022-12-27T10:42:03.374Z,37.08
2022-12-27T10:44:30.083Z,35.13
2022-12-27T10:46:56.989Z,35.68
2022-12-27T10:49:23.767Z,34.46
2022-12-27T10:51:50.604Z,35.30
2022-12-27T10:54:17.303Z,33.39
2022-12-27T10:56:44.017Z,34.06
2022-12-27T10:59:10.662Z,34.07
2022-12-27T11:01:37.575Z,33.15
2022-12-27T11:04:04.348Z,33.35
2022-12-27T11:06:30.992Z,32.53
2022-12-27T11:08:57.841Z,30.70
2022-12-27T11:11:24.688Z,31.47
2022-12-27T11:13:51.420Z,30.12
2022-12-27T11:16:18.160Z,30.90
2022-12-27T11:18:44.892Z,32.19
2022-12-27T11:21:20.066Z,31.75
2022-12-27T11:23:51.288Z,29.38
2022-12-27T11:26:17.928Z,30.75
2022-12-27T11:28:44.567Z,30.91
2022-12-27T11:31:11.361Z,30.02
2022-12-27T11:33:38.077Z,30.73
2022-12-27T11:36:04.772Z,29.59
2022-12-27T11:38:31.480Z,30.12
2022-12-27T11:40:58.143Z,29.85
2022-12-27T11:43:24.841Z,30.63
2022-12-27T11:45:51.541Z,29.94
2022-12-27T11:48:18.278Z,29.56
2022-12-27T11:50:44.995Z,30.36
2022-12-27T11:53:11.688Z,30.23
2022-12-27T11:55:38.349Z,28.79
2022-12-27T11:58:05.035Z,29.69
2022-12-27T12:00:31.851Z,29.29
2022-12-27T12:02:58.666Z,29.47
2022-12-27T12:05:25.440Z,28.04
2022-12-27T12:07:53.095Z,28.75
2022-12-27T12:10:19.796Z,29.57
2022-12-27T12:12:46.436Z,28.24
2022-12-27T12:15:13.126Z,29.39
2022-12-27T12:17:39.838Z,29.84
2022-12-27T12:20:06.515Z,29.56
2022-12-27T12:22:33.226Z,29.26
2022-12-27T12:24:59.869Z,29.67
2022-12-27T12:27:26.571Z,29.40
2022-12-27T12:29:54.537Z,29.71
2022-12-27T12:32:21.181Z,28.65
2022-12-27T12:34:47.840Z,29.47
2022-12-27T12:37:14.463Z,29.44
2022-12-27T12:39:41.155Z,28.93
2022-12-27T12:42:07.825Z,26.85
2022-12-27T12:44:41.141Z,28.62
2022-12-27T12:47:09.397Z,28.56
2022-12-27T12:49:36.111Z,28.55
2022-12-27T12:52:02.818Z,28.18
2022-12-27T12:54:29.507Z,28.86
2022-12-27T12:56:56.224Z,29.09
2022-12-27T12:59:22.879Z,29.03
2022-12-27T13:01:51.185Z,28.69
2022-12-27T13:04:17.996Z,28.35
2022-12-27T13:06:45.037Z,29.32
2022-12-27T13:09:11.696Z,29.52
2022-12-27T13:11:38.356Z,29.08
2022-12-27T13:14:04.992Z,29.58
2022-12-27T13:16:31.668Z,28.77
2022-12-27T13:18:58.387Z,29.23
2022-12-27T13:21:25.116Z,28.64
2022-12-27T13:23:51.835Z,29.51
2022-12-27T13:26:18.475Z,29.37
2022-12-27T13:28:45.163Z,29.01
2022-12-27T13:31:11.907Z,28.88
2022-12-27T13:33:38.647Z,29.20
2022-12-27T13:36:05.338Z,29.94
2022-12-27T13:38:32.038Z,30.44
2022-12-27T13:40:58.716Z,29.94
2022-12-27T13:43:25.403Z,30.01
2022-12-27T13:45:52.135Z,29.96
2022-12-27T13:48:18.965Z,29.86
2022-12-27T13:50:45.611Z,31.07
2022-12-27T13:53:12.263Z,30.99
2022-12-27T13:55:38.964Z,31.33
2022-12-27T13:58:05.666Z,30.98
2022-12-27T14:00:32.332Z,31.08
2022-12-27T14:02:59.148Z,31.84
2022-12-27T14:05:25.931Z,32.64
2022-12-27T14:07:52.663Z,31.52
2022-12-27T14:10:19.349Z,32.99
2022-12-27T14:12:46.107Z,33.03
2022-12-27T14:15:12.764Z,33.49
2022-12-27T14:17:39.421Z,32.34
2022-12-27T14:20:06.227Z,31.41
2022-12-27T14:22:32.937Z,32.34
2022-12-27T14:24:59.703Z,33.38
2022-12-27T14:27:26.401Z,32.75
2022-12-27T14:29:53.107Z,33.47
2022-12-27T14:32:19.834Z,33.70
2022-12-27T14:34:46.558Z,33.05
2022-12-27T14:37:13.295Z,33.42
2022-12-27T14:39:39.949Z,33.40
2022-12-27T14:42:06.604Z,33.29
2022-12-27T14:44:33.239Z,34.25
2022-12-27T14:46:59.937Z,33.99
2022-12-27T14:49:26.697Z,35.58
2022-12-27T14:52:04.438Z,35.99
2022-12-27T14:54:35.371Z,36.50
2022-12-27T14:57:02.102Z,37.34
2022-12-27T14:59:28.804Z,37.13
2022-12-27T15:01:55.656Z,36.21
2022-12-27T15:04:22.478Z,37.25
2022-12-27T15:06:49.244Z,37.77
2022-12-27T15:09:15.965Z,36.68
2022-12-27T15:11:42.677Z,36.98
2022-12-27T15:14:09.388Z,37.20
2022-12-27T15:16:36.139Z,37.31
2022-12-27T15:19:02.844Z,39.31
2022-12-27T15:21:29.582Z,39.32
2022-12-27T15:23:56.235Z,38.90
2022-12-27T15:26:22.953Z,39.68
2022-12-27T15:28:49.669Z,38.50
2022-12-27T15:31:16.378Z,40.28
2022-12-27T15:33:43.109Z,39.52
2022-12-27T15:36:09.814Z,40.03
2022-12-27T15:38:36.840Z,39.92
2022-12-27T15:41:03.555Z,41.04
2022-12-27T15:43:30.199Z,40.84
2022-12-27T15:45:56.931Z,40.97
2022-12-27T15:48:23.577Z,41.83
2022-12-27T15:50:50.274Z,42.07
2022-12-27T15:53:16.939Z,41.34
2022-12-27T15:55:43.624Z,41.68
2022-12-27T15:58:10.365Z,42.81
2022-12-27T16:00:37.035Z,42.95
2022-12-27T16:03:03.921Z,42.71
2022-12-27T16:05:30.819Z,42.99
2022-12-27T16:07:57.510Z,44.63
2022-12-27T16:10:24.146Z,45.52
2022-12-27T16:12:50.779Z,48.74
2022-12-27T16:15:17.522Z,50.05
2022-12-27T16:17:44.186Z,50.38
2022-12-27T16:20:10.897Z,50.31
2022-12-27T16:22:37.585Z,49.68
2022-12-27T16:25:04.251Z,48.51
2022-12-27T16:27:30.919Z,48.30
2022-12-27T16:29:57.753Z,48.41
2022-12-27T16:32:24.425Z,49.85
2022-12-27T16:34:51.082Z,50.43
2022-12-27T16:37:17.700Z,50.78
2022-12-27T16:39:44.541Z,50.34
2022-12-27T16:42:11.267Z,50.27
2022-12-27T16:44:38.586Z,49.70
2022-12-27T16:47:05.428Z,50.22
2022-12-27T16:49:32.141Z,51.50
2022-12-27T16:51:58.877Z,52.09
2022-12-27T16:54:25.550Z,52.21
2022-12-27T16:56:52.215Z,52.84
2022-12-27T16:59:19.042Z,52.59
2022-12-27T17:01:45.798Z,53.61
2022-12-27T17:04:12.571Z,53.99
2022-12-27T17:06:39.225Z,53.86
2022-12-27T17:09:05.846Z,53.45
2022-12-27T17:11:32.517Z,52.71
2022-12-27T17:13:59.259Z,52.70
2022-12-27T17:16:26.047Z,51.90
2022-12-27T17:18:52.797Z,52.38
2022-12-27T17:21:21.285Z,51.75
2022-12-27T17:23:51.419Z,52.24
2022-12-27T17:26:18.149Z,53.10
2022-12-27T17:28:44.799Z,53.25
2022-12-27T17:31:11.533Z,53.52
2022-12-27T17:33:38.305Z,51.84
2022-12-27T17:36:05.166Z,51.38
2022-12-27T17:38:31.894Z,51.08
2022-12-27T17:40:58.533Z,50.94
2022-12-27T17:43:25.241Z,51.65
2022-12-27T17:45:51.923Z,51.36
2022-12-27T17:48:18.557Z,51.51
2022-12-27T17:50:45.234Z,51.34
2022-12-27T17:53:14.689Z,51.58
2022-12-27T17:55:41.588Z,51.77
2022-12-27T17:58:08.284Z,51.51
2022-12-27T18:00:35.028Z,51.82
2022-12-27T18:03:01.755Z,52.52
2022-12-27T18:05:28.447Z,52.63
2022-12-27T18:07:55.112Z,51.95
2022-12-27T18:10:21.865Z,52.53
2022-12-27T18:12:48.614Z,52.34
2022-12-27T18:15:15.270Z,52.85
2022-12-27T18:17:41.928Z,53.27
2022-12-27T18:20:08.655Z,53.45
2022-12-27T18:22:35.373Z,53.59
2022-12-27T18:25:02.083Z,53.30
2022-12-27T18:27:28.799Z,53.59
2022-12-27T18:29:57.217Z,53.87
2022-12-27T18:32:23.868Z,54.16
2022-12-27T18:34:50.607Z,53.31
2022-12-27T18:37:17.274Z,53.68
2022-12-27T18:39:44.026Z,53.79
2022-12-27T18:42:10.770Z,54.54
2022-12-27T18:44:37.672Z,54.38
2022-12-27T18:47:04.408Z,54.56
2022-12-27T18:49:31.065Z,54.75
2022-12-27T18:51:57.787Z,55.02
2022-12-27T18:54:24.547Z,54.26
2022-12-27T18:56:51.206Z,54.95
2022-12-27T18:59:17.861Z,55.17
2022-12-27T19:01:44.677Z,55.45
2022-12-27T19:04:11.396Z,55.56
2022-12-27T19:06:38.089Z,54.78
2022-12-27T19:09:04.728Z,54.66
2022-12-27T19:11:36.199Z,54.85
2022-12-27T19:14:03.211Z,55.09
2022-12-27T19:16:29.960Z,55.75
2022-12-27T19:18:56.704Z,56.19
2022-12-27T19:21:23.412Z,55.23
2022-12-27T19:23:50.040Z,55.14
2022-12-27T19:26:16.746Z,55.13
2022-12-27T19:28:43.438Z,56.00
2022-12-27T19:31:10.293Z,56.16
2022-12-27T19:33:37.099Z,55.76
2022-12-27T19:36:03.789Z,54.91
2022-12-27T19:38:30.545Z,55.11
2022-12-27T19:41:03.019Z,55.22
2022-12-27T19:43:30.664Z,54.91
2022-12-27T19:45:57.387Z,55.27
2022-12-27T19:48:24.141Z,55.57
2022-12-27T19:50:50.861Z,55.00
2022-12-27T19:53:17.620Z,55.32
2022-12-27T19:55:44.368Z,55.91
2022-12-27T19:58:11.090Z,55.74
2022-12-27T20:00:37.824Z,55.70
2022-12-27T20:03:04.575Z,55.73
2022-12-27T20:06:12.411Z,55.33
2022-12-27T20:08:18.288Z,56.06
2022-12-27T20:10:44.991Z,55.85
2022-12-27T20:13:11.776Z,56.12
2022-12-27T20:15:38.475Z,55.77
2022-12-27T20:18:07.332Z,57.15
2022-12-27T20:20:34.080Z,57.60
2022-12-27T20:23:00.909Z,57.12
2022-12-27T20:25:27.594Z,56.31
2022-12-27T20:27:54.369Z,56.75
2022-12-27T20:30:21.215Z,57.20
2022-12-27T20:32:47.936Z,57.11
2022-12-27T20:35:14.673Z,56.28
2022-12-27T20:37:41.380Z,56.90
2022-12-27T20:40:08.187Z,57.29
2022-12-27T20:42:34.849Z,56.59
2022-12-27T20:45:01.577Z,56.80
2022-12-27T20:47:28.315Z,56.90
2022-12-27T20:49:54.965Z,57.12
2022-12-27T20:52:25.770Z,56.68
2022-12-27T20:54:57.425Z,56.73
2022-12-27T20:57:24.172Z,56.98
2022-12-27T20:59:50.872Z,56.73
2022-12-27T21:02:17.668Z,56.74
2022-12-27T21:04:44.422Z,56.51
2022-12-27T21:07:13.245Z,56.70
2022-12-27T21:09:39.946Z,57.44
2022-12-27T21:12:06.668Z,57.17
2022-12-27T21:14:33.399Z,56.61
2022-12-27T21:17:00.117Z,57.08
2022-12-27T21:19:26.831Z,57.53
2022-12-27T21:21:53.508Z,57.17
2022-12-27T21:24:20.221Z,56.72
2022-12-27T21:26:46.890Z,57.20
2022-12-27T21:29:13.549Z,57.23
2022-12-27T21:31:40.179Z,57.02
2022-12-27T21:34:06.844Z,56.89
2022-12-27T21:36:33.587Z,57.54
2022-12-27T21:39:00.241Z,57.48
2022-12-27T21:41:26.907Z,57.66
2022-12-27T21:43:53.548Z,57.49
2022-12-27T21:46:20.364Z,57.74
2022-12-27T21:48:47.221Z,56.83
2022-12-27T21:51:14.012Z,56.80
2022-12-27T21:53:40.706Z,57.11
2022-12-27T21:56:07.437Z,57.59
2022-12-27T21:58:34.076Z,57.15
2022-12-27T22:01:05.057Z,57.52
2022-12-27T22:03:35.475Z,57.70
2022-12-27T22:06:02.418Z,57.29
2022-12-27T22:08:29.322Z,57.52
2022-12-27T22:10:55.998Z,57.94
2022-12-27T22:13:22.669Z,58.01
2022-12-27T22:15:49.416Z,57.53
2022-12-27T22:18:17.092Z,58.02
2022-12-27T22:20:47.048Z,58.13
2022-12-27T22:23:13.849Z,57.76
2022-12-27T22:25:40.548Z,57.62
2022-12-27T22:28:07.189Z,57.64
2022-12-27T22:30:34.027Z,58.15
2022-12-27T22:33:00.777Z,57.60
2022-12-27T22:35:27.478Z,57.73
2022-12-27T22:37:54.188Z,57.89
2022-12-27T22:40:30.577Z,57.95
2022-12-27T22:42:57.921Z,58.90
2022-12-27T22:45:24.572Z,58.29
2022-12-27T22:47:51.226Z,58.70
2022-12-27T22:50:17.981Z,58.25
2022-12-27T22:52:44.633Z,57.85
2022-12-27T22:55:11.320Z,58.21
2022-12-27T22:57:38.045Z,58.41
2022-12-27T23:00:04.730Z,58.92
2022-12-27T23:02:31.545Z,58.19
2022-12-27T23:04:58.284Z,58.18
2022-12-27T23:08:06.057Z,58.09
2022-12-27T23:10:11.606Z,58.44
2022-12-27T23:12:38.314Z,58.59
2022-12-27T23:15:05.045Z,58.47
2022-12-27T23:17:31.709Z,57.80
2022-12-27T23:19:58.362Z,58.08
2022-12-27T23:22:25.075Z,58.34
2022-12-27T23:24:51.726Z,57.92
2022-12-27T23:27:18.453Z,58.02
2022-12-27T23:29:45.152Z,58.38
2022-12-27T23:32:11.840Z,58.03
2022-12-27T23:34:38.518Z,58.06
2022-12-27T23:37:05.161Z,58.05
2022-12-27T23:39:31.855Z,58.08
2022-12-27T23:41:58.487Z,57.71
2022-12-27T23:44:34.126Z,58.45
2022-12-27T23:47:01.567Z,58.00
2022-12-27T23:49:28.415Z,57.89
2022-12-27T23:51:55.097Z,58.95
2022-12-27T23:54:21.916Z,58.35
2022-12-27T23:56:48.577Z,58.81
2022-12-27T23:59:15.216Z,58.52
